sensor_id;sensor_type;location;lat;lon;timestamp;temperature;humidity
11083;DHT22;5595;50.186;8.468;2024-03-08T00:01:23;3.20;99.90
11083;DHT22;5595;50.186;8.468;2024-03-08T00:03:50;3.10;99.90
11083;DHT22;5595;50.186;8.468;2024-03-08T00:06:18;3.10;99.90
11083;DHT22;5595;50.186;8.468;2024-03-08T00:08:46;3.10;99.90
11083;DHT22;5595;50.186;8.468;2024-03-08T00:11:13;3.10;99.90
11083;DHT22;5595;50.186;8.468;2024-03-08T00:13:39;3.10;99.90
11083;DHT22;5595;50.186;8.468;2024-03-08T00:16:07;3.10;99.90
11083;DHT22;5595;50.186;8.468;2024-03-08T00:18:34;3.00;99.90
11083;DHT22;5595;50.186;8.468;2024-03-08T00:21:02;3.00;99.90
11083;DHT22;5595;50.186;8.468;2024-03-08T00:23:28;3.00;99.90
11083;DHT22;5595;50.186;8.468;2024-03-08T00:25:56;3.00;99.90
11083;DHT22;5595;50.186;8.468;2024-03-08T00:28:23;3.00;99.90
11083;DHT22;5595;50.186;8.468;2024-03-08T00:30:50;2.90;99.90
11083;DHT22;5595;50.186;8.468;2024-03-08T00:33:17;2.90;99.90
11083;DHT22;5595;50.186;8.468;2024-03-08T00:35:44;2.80;99.90
11083;DHT22;5595;50.186;8.468;2024-03-08T00:38:10;2.80;99.90
11083;DHT22;5595;50.186;8.468;2024-03-08T00:40:38;2.80;99.90
11083;DHT22;5595;50.186;8.468;2024-03-08T00:43:07;2.80;99.90
11083;DHT22;5595;50.186;8.468;2024-03-08T00:45:34;2.80;99.90
11083;DHT22;5595;50.186;8.468;2024-03-08T00:48:02;2.70;99.90
11083;DHT22;5595;50.186;8.468;2024-03-08T00:50:31;2.70;99.90
11083;DHT22;5595;50.186;8.468;2024-03-08T00:52:59;2.70;99.90
11083;DHT22;5595;50.186;8.468;2024-03-08T00:55:26;2.60;99.90
11083;DHT22;5595;50.186;8.468;2024-03-08T00:57:55;2.60;99.90
11083;DHT22;5595;50.186;8.468;2024-03-08T01:00:23;2.60;99.90
11083;DHT22;5595;50.186;8.468;2024-03-08T01:02:51;2.50;99.90
11083;DHT22;5595;50.186;8.468;2024-03-08T01:05:17;2.50;99.90
11083;DHT22;5595;50.186;8.468;2024-03-08T01:07:44;2.50;99.90
11083;DHT22;5595;50.186;8.468;2024-03-08T01:10:12;2.50;99.90
11083;DHT22;5595;50.186;8.468;2024-03-08T01:12:39;2.50;99.90
11083;DHT22;5595;50.186;8.468;2024-03-08T01:15:06;2.40;99.90
11083;DHT22;5595;50.186;8.468;2024-03-08T01:17:35;2.40;99.90
11083;DHT22;5595;50.186;8.468;2024-03-08T01:20:01;2.40;99.90
11083;DHT22;5595;50.186;8.468;2024-03-08T01:22:29;2.40;99.90
11083;DHT22;5595;50.186;8.468;2024-03-08T01:24:56;2.40;99.90
11083;DHT22;5595;50.186;8.468;2024-03-08T01:27:23;2.40;99.90
11083;DHT22;5595;50.186;8.468;2024-03-08T01:29:50;2.40;99.90
11083;DHT22;5595;50.186;8.468;2024-03-08T01:32:17;2.40;99.90
11083;DHT22;5595;50.186;8.468;2024-03-08T01:34:46;2.30;99.90
11083;DHT22;5595;50.186;8.468;2024-03-08T01:37:12;2.30;99.90
11083;DHT22;5595;50.186;8.468;2024-03-08T01:39:40;2.30;99.90
11083;DHT22;5595;50.186;8.468;2024-03-08T01:42:07;2.30;99.90
11083;DHT22;5595;50.186;8.468;2024-03-08T01:44:34;2.20;99.90
11083;DHT22;5595;50.186;8.468;2024-03-08T01:47:01;2.20;99.90
11083;DHT22;5595;50.186;8.468;2024-03-08T01:49:28;2.20;99.90
11083;DHT22;5595;50.186;8.468;2024-03-08T01:51:56;2.10;99.90
11083;DHT22;5595;50.186;8.468;2024-03-08T01:54:23;2.10;99.90
11083;DHT22;5595;50.186;8.468;2024-03-08T01:56:50;2.10;99.90
11083;DHT22;5595;50.186;8.468;2024-03-08T01:59:18;2.10;99.90
11083;DHT22;5595;50.186;8.468;2024-03-08T02:01:46;2.10;99.90
11083;DHT22;5595;50.186;8.468;2024-03-08T02:04:13;2.00;99.90
11083;DHT22;5595;50.186;8.468;2024-03-08T02:06:40;2.00;99.90
11083;DHT22;5595;50.186;8.468;2024-03-08T02:09:08;2.00;99.90
11083;DHT22;5595;50.186;8.468;2024-03-08T02:11:35;2.00;99.90
11083;DHT22;5595;50.186;8.468;2024-03-08T02:14:02;2.00;99.90
11083;DHT22;5595;50.186;8.468;2024-03-08T02:16:31;2.00;99.90
11083;DHT22;5595;50.186;8.468;2024-03-08T02:18:58;1.90;99.90
11083;DHT22;5595;50.186;8.468;2024-03-08T02:21:27;2.00;99.90
11083;DHT22;5595;50.186;8.468;2024-03-08T02:23:53;2.00;99.90
11083;DHT22;5595;50.186;8.468;2024-03-08T02:26:20;1.90;99.90
11083;DHT22;5595;50.186;8.468;2024-03-08T02:28:48;1.90;99.90
11083;DHT22;5595;50.186;8.468;2024-03-08T02:31:15;1.90;99.90
11083;DHT22;5595;50.186;8.468;2024-03-08T02:33:42;1.90;99.90
11083;DHT22;5595;50.186;8.468;2024-03-08T02:36:09;1.90;99.90
11083;DHT22;5595;50.186;8.468;2024-03-08T02:38:37;1.90;99.90
11083;DHT22;5595;50.186;8.468;2024-03-08T02:41:04;1.90;99.90
11083;DHT22;5595;50.186;8.468;2024-03-08T02:43:31;1.90;99.90
11083;DHT22;5595;50.186;8.468;2024-03-08T02:45:58;1.80;99.90
11083;DHT22;5595;50.186;8.468;2024-03-08T02:48:25;1.90;99.90
11083;DHT22;5595;50.186;8.468;2024-03-08T02:50:52;1.80;99.90
11083;DHT22;5595;50.186;8.468;2024-03-08T02:53:19;1.80;99.90
11083;DHT22;5595;50.186;8.468;2024-03-08T02:55:47;1.80;99.90
11083;DHT22;5595;50.186;8.468;2024-03-08T02:58:14;1.70;99.90
11083;DHT22;5595;50.186;8.468;2024-03-08T03:00:41;1.70;99.90
11083;DHT22;5595;50.186;8.468;2024-03-08T03:03:09;1.70;99.90
11083;DHT22;5595;50.186;8.468;2024-03-08T03:05:36;1.70;99.90
11083;DHT22;5595;50.186;8.468;2024-03-08T03:08:03;1.70;99.90
11083;DHT22;5595;50.186;8.468;2024-03-08T03:10:34;1.70;99.90
11083;DHT22;5595;50.186;8.468;2024-03-08T03:13:03;1.70;99.90
11083;DHT22;5595;50.186;8.468;2024-03-08T03:15:30;1.70;99.90
11083;DHT22;5595;50.186;8.468;2024-03-08T03:17:56;1.70;99.90
11083;DHT22;5595;50.186;8.468;2024-03-08T03:20:23;1.70;99.90
11083;DHT22;5595;50.186;8.468;2024-03-08T03:22:52;1.70;99.90
11083;DHT22;5595;50.186;8.468;2024-03-08T03:25:19;1.70;99.90
11083;DHT22;5595;50.186;8.468;2024-03-08T03:27:51;1.70;99.90
11083;DHT22;5595;50.186;8.468;2024-03-08T03:30:23;1.70;99.90
11083;DHT22;5595;50.186;8.468;2024-03-08T03:32:52;1.70;99.90
11083;DHT22;5595;50.186;8.468;2024-03-08T03:35:20;1.60;99.90
11083;DHT22;5595;50.186;8.468;2024-03-08T03:37:47;1.60;99.90
11083;DHT22;5595;50.186;8.468;2024-03-08T03:40:27;2.40;99.90
11083;DHT22;5595;50.186;8.468;2024-03-08T03:42:53;1.50;99.90
11083;DHT22;5595;50.186;8.468;2024-03-08T03:45:20;1.50;99.90
11083;DHT22;5595;50.186;8.468;2024-03-08T03:47:48;1.50;99.90
11083;DHT22;5595;50.186;8.468;2024-03-08T03:50:15;1.50;99.90
11083;DHT22;5595;50.186;8.468;2024-03-08T03:52:42;1.50;99.90
11083;DHT22;5595;50.186;8.468;2024-03-08T03:55:09;1.40;99.90
11083;DHT22;5595;50.186;8.468;2024-03-08T03:57:37;1.40;99.90
11083;DHT22;5595;50.186;8.468;2024-03-08T04:00:05;1.40;99.90
11083;DHT22;5595;50.186;8.468;2024-03-08T04:02:36;1.40;99.90
11083;DHT22;5595;50.186;8.468;2024-03-08T04:05:04;1.40;99.90
11083;DHT22;5595;50.186;8.468;2024-03-08T04:07:31;1.40;99.90
11083;DHT22;5595;50.186;8.468;2024-03-08T04:09:58;1.40;99.90
11083;DHT22;5595;50.186;8.468;2024-03-08T04:12:25;1.40;99.90
11083;DHT22;5595;50.186;8.468;2024-03-08T04:14:52;1.30;99.90
11083;DHT22;5595;50.186;8.468;2024-03-08T04:17:18;1.30;99.90
11083;DHT22;5595;50.186;8.468;2024-03-08T04:19:45;1.30;99.90
11083;DHT22;5595;50.186;8.468;2024-03-08T04:22:15;1.30;99.90
11083;DHT22;5595;50.186;8.468;2024-03-08T04:24:43;1.30;99.90
11083;DHT22;5595;50.186;8.468;2024-03-08T04:27:10;1.30;99.90
11083;DHT22;5595;50.186;8.468;2024-03-08T04:29:37;1.30;99.90
11083;DHT22;5595;50.186;8.468;2024-03-08T04:32:04;1.30;99.90
11083;DHT22;5595;50.186;8.468;2024-03-08T04:34:32;1.30;99.90
11083;DHT22;5595;50.186;8.468;2024-03-08T04:36:59;1.30;99.90
11083;DHT22;5595;50.186;8.468;2024-03-08T04:39:27;1.20;99.90
11083;DHT22;5595;50.186;8.468;2024-03-08T04:41:55;1.30;99.90
11083;DHT22;5595;50.186;8.468;2024-03-08T04:44:23;1.30;99.90
11083;DHT22;5595;50.186;8.468;2024-03-08T04:46:50;1.20;99.90
11083;DHT22;5595;50.186;8.468;2024-03-08T04:49:17;1.20;99.90
11083;DHT22;5595;50.186;8.468;2024-03-08T04:51:44;1.20;99.90
11083;DHT22;5595;50.186;8.468;2024-03-08T04:54:11;1.20;99.90
11083;DHT22;5595;50.186;8.468;2024-03-08T04:56:39;1.20;99.90
11083;DHT22;5595;50.186;8.468;2024-03-08T04:59:06;1.20;99.90
11083;DHT22;5595;50.186;8.468;2024-03-08T05:01:34;1.20;99.90
11083;DHT22;5595;50.186;8.468;2024-03-08T05:04:03;1.20;99.90
11083;DHT22;5595;50.186;8.468;2024-03-08T05:06:31;1.20;99.90
11083;DHT22;5595;50.186;8.468;2024-03-08T05:08:58;1.20;99.90
11083;DHT22;5595;50.186;8.468;2024-03-08T05:11:25;1.20;99.90
11083;DHT22;5595;50.186;8.468;2024-03-08T05:13:53;1.20;99.90
11083;DHT22;5595;50.186;8.468;2024-03-08T05:16:21;1.20;99.90
11083;DHT22;5595;50.186;8.468;2024-03-08T05:18:50;1.10;99.90
11083;DHT22;5595;50.186;8.468;2024-03-08T05:21:16;1.10;99.90
11083;DHT22;5595;50.186;8.468;2024-03-08T05:23:45;1.10;99.90
11083;DHT22;5595;50.186;8.468;2024-03-08T05:26:12;1.10;99.90
11083;DHT22;5595;50.186;8.468;2024-03-08T05:28:40;1.10;99.90
11083;DHT22;5595;50.186;8.468;2024-03-08T05:31:08;1.10;99.90
11083;DHT22;5595;50.186;8.468;2024-03-08T05:33:35;1.10;99.90
11083;DHT22;5595;50.186;8.468;2024-03-08T05:36:02;1.10;99.90
11083;DHT22;5595;50.186;8.468;2024-03-08T05:38:29;1.10;99.90
11083;DHT22;5595;50.186;8.468;2024-03-08T05:40:56;1.00;99.90
11083;DHT22;5595;50.186;8.468;2024-03-08T05:43:22;1.00;99.90
11083;DHT22;5595;50.186;8.468;2024-03-08T05:45:50;1.00;99.90
11083;DHT22;5595;50.186;8.468;2024-03-08T05:48:18;1.00;99.90
11083;DHT22;5595;50.186;8.468;2024-03-08T05:50:45;1.00;99.90
11083;DHT22;5595;50.186;8.468;2024-03-08T05:53:12;1.00;99.90
11083;DHT22;5595;50.186;8.468;2024-03-08T05:55:39;1.00;99.90
11083;DHT22;5595;50.186;8.468;2024-03-08T05:58:06;1.00;99.90
11083;DHT22;5595;50.186;8.468;2024-03-08T06:00:33;1.00;99.90
11083;DHT22;5595;50.186;8.468;2024-03-08T06:03:02;1.00;99.90
11083;DHT22;5595;50.186;8.468;2024-03-08T06:05:30;1.00;99.90
11083;DHT22;5595;50.186;8.468;2024-03-08T06:07:57;1.00;99.90
11083;DHT22;5595;50.186;8.468;2024-03-08T06:10:23;1.00;99.90
11083;DHT22;5595;50.186;8.468;2024-03-08T06:12:50;1.10;99.90
11083;DHT22;5595;50.186;8.468;2024-03-08T06:15:17;1.10;99.90
11083;DHT22;5595;50.186;8.468;2024-03-08T06:17:46;1.10;99.90
11083;DHT22;5595;50.186;8.468;2024-03-08T06:20:13;1.10;99.90
11083;DHT22;5595;50.186;8.468;2024-03-08T06:22:41;1.10;99.90
11083;DHT22;5595;50.186;8.468;2024-03-08T06:25:10;1.20;99.90
11083;DHT22;5595;50.186;8.468;2024-03-08T06:27:39;1.20;99.90
11083;DHT22;5595;50.186;8.468;2024-03-08T06:30:07;1.20;99.90
11083;DHT22;5595;50.186;8.468;2024-03-08T06:32:35;1.30;99.90
11083;DHT22;5595;50.186;8.468;2024-03-08T06:35:02;1.30;99.90
11083;DHT22;5595;50.186;8.468;2024-03-08T06:37:31;1.30;99.90
11083;DHT22;5595;50.186;8.468;2024-03-08T06:40:00;1.30;99.90
11083;DHT22;5595;50.186;8.468;2024-03-08T06:42:27;1.30;99.90
11083;DHT22;5595;50.186;8.468;2024-03-08T06:44:54;1.40;99.90
11083;DHT22;5595;50.186;8.468;2024-03-08T06:47:28;1.40;99.90
11083;DHT22;5595;50.186;8.468;2024-03-08T06:49:55;1.40;99.90
11083;DHT22;5595;50.186;8.468;2024-03-08T06:52:22;1.50;99.90
11083;DHT22;5595;50.186;8.468;2024-03-08T06:54:49;1.50;99.90
11083;DHT22;5595;50.186;8.468;2024-03-08T06:57:19;1.50;99.90
11083;DHT22;5595;50.186;8.468;2024-03-08T06:59:47;1.60;99.90
11083;DHT22;5595;50.186;8.468;2024-03-08T07:02:14;1.70;99.90
11083;DHT22;5595;50.186;8.468;2024-03-08T07:04:41;1.80;99.90
11083;DHT22;5595;50.186;8.468;2024-03-08T07:07:07;1.90;99.90
11083;DHT22;5595;50.186;8.468;2024-03-08T07:09:35;2.00;99.90
11083;DHT22;5595;50.186;8.468;2024-03-08T07:12:02;2.10;99.90
11083;DHT22;5595;50.186;8.468;2024-03-08T07:14:30;2.20;99.90
11083;DHT22;5595;50.186;8.468;2024-03-08T07:16:57;2.20;99.90
11083;DHT22;5595;50.186;8.468;2024-03-08T07:19:24;2.30;99.90
11083;DHT22;5595;50.186;8.468;2024-03-08T07:21:51;2.40;99.90
11083;DHT22;5595;50.186;8.468;2024-03-08T07:24:17;2.50;99.90
11083;DHT22;5595;50.186;8.468;2024-03-08T07:27:04;2.50;99.90
11083;DHT22;5595;50.186;8.468;2024-03-08T07:29:33;2.60;99.90
11083;DHT22;5595;50.186;8.468;2024-03-08T07:32:00;2.70;99.90
11083;DHT22;5595;50.186;8.468;2024-03-08T07:34:38;2.70;99.90
11083;DHT22;5595;50.186;8.468;2024-03-08T07:37:06;2.80;99.90
11083;DHT22;5595;50.186;8.468;2024-03-08T07:39:37;2.90;99.90
11083;DHT22;5595;50.186;8.468;2024-03-08T07:42:04;2.90;99.90
11083;DHT22;5595;50.186;8.468;2024-03-08T07:44:32;3.00;99.90
11083;DHT22;5595;50.186;8.468;2024-03-08T07:46:59;3.10;99.90
11083;DHT22;5595;50.186;8.468;2024-03-08T07:49:26;3.10;99.90
11083;DHT22;5595;50.186;8.468;2024-03-08T07:51:53;3.20;99.90
11083;DHT22;5595;50.186;8.468;2024-03-08T07:54:19;3.30;99.90
11083;DHT22;5595;50.186;8.468;2024-03-08T07:56:46;3.40;99.90
11083;DHT22;5595;50.186;8.468;2024-03-08T07:59:13;3.50;99.90
11083;DHT22;5595;50.186;8.468;2024-03-08T08:01:41;3.50;99.90
11083;DHT22;5595;50.186;8.468;2024-03-08T08:04:09;3.60;99.90
11083;DHT22;5595;50.186;8.468;2024-03-08T08:06:38;3.70;99.90
11083;DHT22;5595;50.186;8.468;2024-03-08T08:09:06;3.70;99.90
11083;DHT22;5595;50.186;8.468;2024-03-08T08:11:35;3.80;99.90
11083;DHT22;5595;50.186;8.468;2024-03-08T08:14:02;3.80;99.90
11083;DHT22;5595;50.186;8.468;2024-03-08T08:16:29;3.90;99.90
11083;DHT22;5595;50.186;8.468;2024-03-08T08:18:57;3.90;99.90
11083;DHT22;5595;50.186;8.468;2024-03-08T08:21:24;4.00;99.90
11083;DHT22;5595;50.186;8.468;2024-03-08T08:23:51;4.10;99.90
11083;DHT22;5595;50.186;8.468;2024-03-08T08:26:18;4.10;99.90
11083;DHT22;5595;50.186;8.468;2024-03-08T08:28:46;4.20;99.90
11083;DHT22;5595;50.186;8.468;2024-03-08T08:31:13;4.30;99.90
11083;DHT22;5595;50.186;8.468;2024-03-08T08:33:40;4.40;99.90
11083;DHT22;5595;50.186;8.468;2024-03-08T08:36:08;4.40;99.90
11083;DHT22;5595;50.186;8.468;2024-03-08T08:38:35;4.40;99.90
11083;DHT22;5595;50.186;8.468;2024-03-08T08:41:02;4.50;99.90
11083;DHT22;5595;50.186;8.468;2024-03-08T08:43:29;4.50;99.90
11083;DHT22;5595;50.186;8.468;2024-03-08T08:45:55;4.60;99.90
11083;DHT22;5595;50.186;8.468;2024-03-08T08:48:22;4.70;99.90
11083;DHT22;5595;50.186;8.468;2024-03-08T08:50:50;4.80;99.90
11083;DHT22;5595;50.186;8.468;2024-03-08T08:53:19;4.80;99.90
11083;DHT22;5595;50.186;8.468;2024-03-08T08:55:46;5.00;99.90
11083;DHT22;5595;50.186;8.468;2024-03-08T08:58:12;5.00;99.90
11083;DHT22;5595;50.186;8.468;2024-03-08T09:00:40;5.00;99.90
11083;DHT22;5595;50.186;8.468;2024-03-08T09:03:07;5.00;99.90
11083;DHT22;5595;50.186;8.468;2024-03-08T09:05:34;5.10;99.90
11083;DHT22;5595;50.186;8.468;2024-03-08T09:08:01;5.20;99.90
11083;DHT22;5595;50.186;8.468;2024-03-08T09:10:29;5.30;99.90
11083;DHT22;5595;50.186;8.468;2024-03-08T09:12:56;5.40;99.90
11083;DHT22;5595;50.186;8.468;2024-03-08T09:15:23;5.50;99.90
11083;DHT22;5595;50.186;8.468;2024-03-08T09:17:53;5.50;99.90
11083;DHT22;5595;50.186;8.468;2024-03-08T09:20:20;5.50;99.90
11083;DHT22;5595;50.186;8.468;2024-03-08T09:22:47;5.60;99.90
11083;DHT22;5595;50.186;8.468;2024-03-08T09:25:14;5.40;99.90
11083;DHT22;5595;50.186;8.468;2024-03-08T09:27:43;5.50;99.90
11083;DHT22;5595;50.186;8.468;2024-03-08T09:30:12;5.60;99.90
11083;DHT22;5595;50.186;8.468;2024-03-08T09:32:40;5.80;99.90
11083;DHT22;5595;50.186;8.468;2024-03-08T09:35:09;5.90;99.90
11083;DHT22;5595;50.186;8.468;2024-03-08T09:37:36;5.90;99.90
11083;DHT22;5595;50.186;8.468;2024-03-08T09:40:04;6.00;99.90
11083;DHT22;5595;50.186;8.468;2024-03-08T09:42:34;6.10;99.90
11083;DHT22;5595;50.186;8.468;2024-03-08T09:45:09;6.20;99.90
11083;DHT22;5595;50.186;8.468;2024-03-08T09:47:38;6.10;99.90
11083;DHT22;5595;50.186;8.468;2024-03-08T09:50:06;6.10;99.90
11083;DHT22;5595;50.186;8.468;2024-03-08T09:52:35;6.40;99.90
11083;DHT22;5595;50.186;8.468;2024-03-08T09:55:04;6.40;99.90
11083;DHT22;5595;50.186;8.468;2024-03-08T09:57:32;6.40;99.90
11083;DHT22;5595;50.186;8.468;2024-03-08T09:59:59;6.50;99.90
11083;DHT22;5595;50.186;8.468;2024-03-08T10:02:27;6.50;99.90
11083;DHT22;5595;50.186;8.468;2024-03-08T10:04:57;6.40;99.90
11083;DHT22;5595;50.186;8.468;2024-03-08T10:07:24;6.30;99.90
11083;DHT22;5595;50.186;8.468;2024-03-08T10:09:52;6.30;99.90
11083;DHT22;5595;50.186;8.468;2024-03-08T10:12:19;6.50;99.90
11083;DHT22;5595;50.186;8.468;2024-03-08T10:14:47;6.60;99.90
11083;DHT22;5595;50.186;8.468;2024-03-08T10:17:13;6.60;99.90
11083;DHT22;5595;50.186;8.468;2024-03-08T10:19:50;6.70;99.90
11083;DHT22;5595;50.186;8.468;2024-03-08T10:22:18;6.90;99.90
11083;DHT22;5595;50.186;8.468;2024-03-08T10:24:45;7.00;99.90
11083;DHT22;5595;50.186;8.468;2024-03-08T10:27:14;7.10;99.90
11083;DHT22;5595;50.186;8.468;2024-03-08T10:29:47;7.10;99.90
11083;DHT22;5595;50.186;8.468;2024-03-08T10:32:16;7.20;99.90
11083;DHT22;5595;50.186;8.468;2024-03-08T10:34:42;7.10;99.90
11083;DHT22;5595;50.186;8.468;2024-03-08T10:37:15;7.20;99.90
11083;DHT22;5595;50.186;8.468;2024-03-08T10:39:48;7.30;99.90
11083;DHT22;5595;50.186;8.468;2024-03-08T10:42:23;7.40;99.90
11083;DHT22;5595;50.186;8.468;2024-03-08T10:45:01;7.50;99.90
11083;DHT22;5595;50.186;8.468;2024-03-08T10:47:32;7.70;99.90
11083;DHT22;5595;50.186;8.468;2024-03-08T10:50:08;7.70;99.90
11083;DHT22;5595;50.186;8.468;2024-03-08T10:52:40;7.70;99.90
11083;DHT22;5595;50.186;8.468;2024-03-08T10:55:08;7.60;99.90
11083;DHT22;5595;50.186;8.468;2024-03-08T10:57:39;7.50;99.90
11083;DHT22;5595;50.186;8.468;2024-03-08T11:00:08;7.50;99.90
11083;DHT22;5595;50.186;8.468;2024-03-08T11:02:37;7.50;99.90
11083;DHT22;5595;50.186;8.468;2024-03-08T11:05:04;7.50;99.90
11083;DHT22;5595;50.186;8.468;2024-03-08T11:07:33;7.60;99.90
11083;DHT22;5595;50.186;8.468;2024-03-08T11:10:04;7.70;99.90
11083;DHT22;5595;50.186;8.468;2024-03-08T11:12:36;7.80;99.90
11083;DHT22;5595;50.186;8.468;2024-03-08T11:15:10;7.90;99.90
11083;DHT22;5595;50.186;8.468;2024-03-08T11:17:45;7.90;99.90
11083;DHT22;5595;50.186;8.468;2024-03-08T11:20:12;8.00;99.90
11083;DHT22;5595;50.186;8.468;2024-03-08T11:22:42;8.10;99.90
11083;DHT22;5595;50.186;8.468;2024-03-08T11:25:34;8.10;99.90
11083;DHT22;5595;50.186;8.468;2024-03-08T11:28:09;8.20;99.90
11083;DHT22;5595;50.186;8.468;2024-03-08T11:30:40;8.20;99.90
11083;DHT22;5595;50.186;8.468;2024-03-08T11:33:11;8.20;99.90
11083;DHT22;5595;50.186;8.468;2024-03-08T11:35:39;8.10;99.90
11083;DHT22;5595;50.186;8.468;2024-03-08T11:38:07;8.10;99.90
11083;DHT22;5595;50.186;8.468;2024-03-08T11:40:36;8.20;99.90
11083;DHT22;5595;50.186;8.468;2024-03-08T11:43:03;8.20;99.90
11083;DHT22;5595;50.186;8.468;2024-03-08T11:45:33;8.30;99.90
11083;DHT22;5595;50.186;8.468;2024-03-08T11:48:01;8.30;99.90
11083;DHT22;5595;50.186;8.468;2024-03-08T11:50:29;8.30;99.90
11083;DHT22;5595;50.186;8.468;2024-03-08T11:53:00;8.40;99.90
11083;DHT22;5595;50.186;8.468;2024-03-08T11:55:27;8.60;99.90
11083;DHT22;5595;50.186;8.468;2024-03-08T11:58:01;8.60;99.90
11083;DHT22;5595;50.186;8.468;2024-03-08T12:00:28;8.60;99.90
11083;DHT22;5595;50.186;8.468;2024-03-08T12:03:05;8.60;99.90
11083;DHT22;5595;50.186;8.468;2024-03-08T12:05:32;8.60;99.90
11083;DHT22;5595;50.186;8.468;2024-03-08T12:08:00;8.70;99.90
11083;DHT22;5595;50.186;8.468;2024-03-08T12:10:27;8.70;99.90
11083;DHT22;5595;50.186;8.468;2024-03-08T12:12:55;8.70;99.90
11083;DHT22;5595;50.186;8.468;2024-03-08T12:15:26;8.70;99.90
11083;DHT22;5595;50.186;8.468;2024-03-08T12:17:54;8.70;99.90
11083;DHT22;5595;50.186;8.468;2024-03-08T12:20:23;8.80;99.90
11083;DHT22;5595;50.186;8.468;2024-03-08T12:22:50;8.90;99.90
11083;DHT22;5595;50.186;8.468;2024-03-08T12:25:18;9.00;99.90
11083;DHT22;5595;50.186;8.468;2024-03-08T12:27:46;9.00;99.90
11083;DHT22;5595;50.186;8.468;2024-03-08T12:30:21;8.90;99.90
11083;DHT22;5595;50.186;8.468;2024-03-08T12:32:52;8.90;99.90
11083;DHT22;5595;50.186;8.468;2024-03-08T12:35:20;8.90;99.90
11083;DHT22;5595;50.186;8.468;2024-03-08T12:37:49;9.00;99.90
11083;DHT22;5595;50.186;8.468;2024-03-08T12:40:17;9.10;99.90
11083;DHT22;5595;50.186;8.468;2024-03-08T12:42:44;9.20;99.90
11083;DHT22;5595;50.186;8.468;2024-03-08T12:45:13;9.30;99.90
11083;DHT22;5595;50.186;8.468;2024-03-08T12:47:40;9.30;99.90
11083;DHT22;5595;50.186;8.468;2024-03-08T12:50:10;9.40;99.90
11083;DHT22;5595;50.186;8.468;2024-03-08T12:52:37;9.30;99.90
11083;DHT22;5595;50.186;8.468;2024-03-08T12:55:04;9.30;99.90
11083;DHT22;5595;50.186;8.468;2024-03-08T12:57:32;9.40;99.90
11083;DHT22;5595;50.186;8.468;2024-03-08T13:00:00;9.40;99.90
11083;DHT22;5595;50.186;8.468;2024-03-08T13:02:27;9.50;99.90
11083;DHT22;5595;50.186;8.468;2024-03-08T13:04:56;9.50;99.90
11083;DHT22;5595;50.186;8.468;2024-03-08T13:07:25;9.60;99.90
11083;DHT22;5595;50.186;8.468;2024-03-08T13:09:52;9.60;99.90
11083;DHT22;5595;50.186;8.468;2024-03-08T13:12:19;9.60;99.90
11083;DHT22;5595;50.186;8.468;2024-03-08T13:14:46;9.70;99.90
11083;DHT22;5595;50.186;8.468;2024-03-08T13:17:13;9.70;99.90
11083;DHT22;5595;50.186;8.468;2024-03-08T13:19:40;9.70;99.90
11083;DHT22;5595;50.186;8.468;2024-03-08T13:22:08;9.70;99.90
11083;DHT22;5595;50.186;8.468;2024-03-08T13:24:39;9.80;99.90
11083;DHT22;5595;50.186;8.468;2024-03-08T13:27:07;9.80;99.90
11083;DHT22;5595;50.186;8.468;2024-03-08T13:29:45;9.80;99.90
11083;DHT22;5595;50.186;8.468;2024-03-08T13:32:13;9.80;99.90
11083;DHT22;5595;50.186;8.468;2024-03-08T13:34:41;9.90;99.90
11083;DHT22;5595;50.186;8.468;2024-03-08T13:37:08;9.90;99.90
11083;DHT22;5595;50.186;8.468;2024-03-08T13:39:35;9.90;99.90
11083;DHT22;5595;50.186;8.468;2024-03-08T13:42:10;10.00;99.90
11083;DHT22;5595;50.186;8.468;2024-03-08T13:44:39;10.10;99.90
11083;DHT22;5595;50.186;8.468;2024-03-08T13:47:09;10.00;99.90
11083;DHT22;5595;50.186;8.468;2024-03-08T13:49:37;10.00;99.90
11083;DHT22;5595;50.186;8.468;2024-03-08T13:52:04;10.00;99.90
11083;DHT22;5595;50.186;8.468;2024-03-08T13:54:33;10.10;99.90
11083;DHT22;5595;50.186;8.468;2024-03-08T13:57:00;10.00;99.90
11083;DHT22;5595;50.186;8.468;2024-03-08T13:59:30;9.90;99.90
11083;DHT22;5595;50.186;8.468;2024-03-08T14:01:58;9.90;99.90
11083;DHT22;5595;50.186;8.468;2024-03-08T14:04:27;10.00;99.90
11083;DHT22;5595;50.186;8.468;2024-03-08T14:06:54;10.00;99.90
11083;DHT22;5595;50.186;8.468;2024-03-08T14:09:23;10.00;99.90
11083;DHT22;5595;50.186;8.468;2024-03-08T14:11:51;10.10;99.90
11083;DHT22;5595;50.186;8.468;2024-03-08T14:14:20;10.10;99.90
11083;DHT22;5595;50.186;8.468;2024-03-08T14:16:50;10.10;99.90
11083;DHT22;5595;50.186;8.468;2024-03-08T14:19:18;10.10;99.90
11083;DHT22;5595;50.186;8.468;2024-03-08T14:21:45;10.10;99.90
11083;DHT22;5595;50.186;8.468;2024-03-08T14:24:13;10.00;99.90
11083;DHT22;5595;50.186;8.468;2024-03-08T14:26:40;10.00;99.90
11083;DHT22;5595;50.186;8.468;2024-03-08T14:29:07;10.00;99.90
11083;DHT22;5595;50.186;8.468;2024-03-08T14:31:35;10.00;99.90
11083;DHT22;5595;50.186;8.468;2024-03-08T14:34:03;10.00;99.90
11083;DHT22;5595;50.186;8.468;2024-03-08T14:36:30;10.00;99.90
11083;DHT22;5595;50.186;8.468;2024-03-08T14:38:57;10.00;99.90
11083;DHT22;5595;50.186;8.468;2024-03-08T14:41:24;9.90;99.90
11083;DHT22;5595;50.186;8.468;2024-03-08T14:43:52;9.90;99.90
11083;DHT22;5595;50.186;8.468;2024-03-08T14:46:19;9.90;99.90
11083;DHT22;5595;50.186;8.468;2024-03-08T14:48:48;9.90;99.90
11083;DHT22;5595;50.186;8.468;2024-03-08T14:51:18;9.80;99.90
11083;DHT22;5595;50.186;8.468;2024-03-08T14:53:46;9.80;99.90
11083;DHT22;5595;50.186;8.468;2024-03-08T14:56:15;9.70;99.90
11083;DHT22;5595;50.186;8.468;2024-03-08T14:58:42;9.70;99.90
11083;DHT22;5595;50.186;8.468;2024-03-08T15:01:10;9.70;99.90
11083;DHT22;5595;50.186;8.468;2024-03-08T15:03:39;9.70;99.90
11083;DHT22;5595;50.186;8.468;2024-03-08T15:06:06;9.80;99.90
11083;DHT22;5595;50.186;8.468;2024-03-08T15:08:36;9.80;99.90
11083;DHT22;5595;50.186;8.468;2024-03-08T15:11:04;9.70;99.90
11083;DHT22;5595;50.186;8.468;2024-03-08T15:13:31;9.70;99.90
11083;DHT22;5595;50.186;8.468;2024-03-08T15:16:05;9.80;99.90
11083;DHT22;5595;50.186;8.468;2024-03-08T15:18:33;9.80;99.90
11083;DHT22;5595;50.186;8.468;2024-03-08T15:21:02;9.70;99.90
11083;DHT22;5595;50.186;8.468;2024-03-08T15:23:32;9.70;99.90
11083;DHT22;5595;50.186;8.468;2024-03-08T15:26:00;9.70;99.90
11083;DHT22;5595;50.186;8.468;2024-03-08T15:28:27;9.70;99.90
11083;DHT22;5595;50.186;8.468;2024-03-08T15:31:02;9.70;99.90
11083;DHT22;5595;50.186;8.468;2024-03-08T15:33:32;9.70;99.90
11083;DHT22;5595;50.186;8.468;2024-03-08T15:35:59;9.70;99.90
11083;DHT22;5595;50.186;8.468;2024-03-08T15:38:29;9.70;99.90
11083;DHT22;5595;50.186;8.468;2024-03-08T15:40:57;9.60;99.90
11083;DHT22;5595;50.186;8.468;2024-03-08T15:43:25;9.60;99.90
11083;DHT22;5595;50.186;8.468;2024-03-08T15:45:52;9.60;99.90
11083;DHT22;5595;50.186;8.468;2024-03-08T15:48:20;9.60;99.90
11083;DHT22;5595;50.186;8.468;2024-03-08T15:50:47;9.50;99.90
11083;DHT22;5595;50.186;8.468;2024-03-08T15:53:15;9.50;99.90
11083;DHT22;5595;50.186;8.468;2024-03-08T15:55:42;9.30;99.90
11083;DHT22;5595;50.186;8.468;2024-03-08T15:58:09;9.40;99.90
11083;DHT22;5595;50.186;8.468;2024-03-08T16:00:38;9.30;99.90
11083;DHT22;5595;50.186;8.468;2024-03-08T16:03:12;9.20;99.90
11083;DHT22;5595;50.186;8.468;2024-03-08T16:05:40;9.20;99.90